createdAt,value
2018-06-24T00:02:26.393Z,52.16
2018-06-24T00:04:55.022Z,51.73
2018-06-24T00:07:23.559Z,52.31
2018-06-24T00:09:52.092Z,52.80
2018-06-24T00:12:21.064Z,52.38
2018-06-24T00:14:49.739Z,52.53
2018-06-24T00:17:18.580Z,52.18
2018-06-24T00:19:47.330Z,52.57
2018-06-24T00:22:16.096Z,52.85
2018-06-24T00:24:44.823Z,53.18
2018-06-24T00:27:13.503Z,52.77
2018-06-24T00:29:42.185Z,52.66
2018-06-24T00:32:10.940Z,53.10
2018-06-24T00:34:39.567Z,52.69
2018-06-24T00:37:08.279Z,52.85
2018-06-24T00:39:36.972Z,53.49
2018-06-24T00:42:05.548Z,53.38
2018-06-24T00:44:34.474Z,54.54
2018-06-24T00:47:03.171Z,54.15
2018-06-24T00:49:31.965Z,53.47
2018-06-24T00:52:00.773Z,54.10
2018-06-24T00:54:29.397Z,53.68
2018-06-24T00:56:58.074Z,53.76
2018-06-24T00:59:37.661Z,54.06
2018-06-24T01:02:06.292Z,53.94
2018-06-24T01:04:34.960Z,53.66
2018-06-24T01:07:03.696Z,54.03
2018-06-24T01:09:32.295Z,54.45
2018-06-24T01:12:00.932Z,54.41
2018-06-24T01:14:29.631Z,53.58
2018-06-24T01:16:58.219Z,54.12
2018-06-24T01:19:26.845Z,53.97
2018-06-24T01:21:55.505Z,54.09
2018-06-24T01:24:24.082Z,54.99
2018-06-24T01:26:52.912Z,54.69
2018-06-24T01:29:21.565Z,54.29
2018-06-24T01:31:50.164Z,54.26
2018-06-24T01:34:18.811Z,53.96
2018-06-24T01:36:47.422Z,54.44
2018-06-24T01:39:15.968Z,54.18
2018-06-24T01:41:44.481Z,54.82
2018-06-24T01:44:13.088Z,54.87
2018-06-24T01:46:41.996Z,54.89
2018-06-24T01:49:10.745Z,54.30
2018-06-24T01:51:39.747Z,54.59
2018-06-24T01:54:08.339Z,54.93
2018-06-24T01:56:36.975Z,54.64
2018-06-24T01:59:05.521Z,54.75
2018-06-24T02:01:34.059Z,54.35
2018-06-24T02:04:02.625Z,54.21
2018-06-24T02:06:31.897Z,54.87
2018-06-24T02:09:01.076Z,55.02
2018-06-24T02:11:29.680Z,55.49
2018-06-24T02:13:58.299Z,55.20
2018-06-24T02:16:26.859Z,55.53
2018-06-24T02:18:55.852Z,55.12
2018-06-24T02:21:24.538Z,54.44
2018-06-24T02:23:53.170Z,54.92
2018-06-24T02:26:21.797Z,55.14
2018-06-24T02:28:50.447Z,55.33
2018-06-24T02:31:19.008Z,55.38
2018-06-24T02:33:47.861Z,55.56
2018-06-24T02:36:16.518Z,55.43
2018-06-24T02:38:45.033Z,55.85
2018-06-24T02:41:13.789Z,55.30
2018-06-24T02:43:42.764Z,55.50
2018-06-24T02:46:11.408Z,55.22
2018-06-24T02:48:40.186Z,55.00
2018-06-24T02:51:08.906Z,54.81
2018-06-24T02:53:37.527Z,54.74
2018-06-24T02:56:06.483Z,54.99
2018-06-24T02:58:35.224Z,55.26
2018-06-24T03:01:04.087Z,55.91
2018-06-24T03:03:32.741Z,55.07
2018-06-24T03:06:01.565Z,54.90
2018-06-24T03:08:30.229Z,55.07
2018-06-24T03:10:58.913Z,55.40
2018-06-24T03:13:27.592Z,54.93
2018-06-24T03:15:56.276Z,55.17
2018-06-24T03:18:25.069Z,55.24
2018-06-24T03:20:53.736Z,55.19
2018-06-24T03:23:22.334Z,55.53
2018-06-24T03:25:51.004Z,54.38
2018-06-24T03:28:19.623Z,54.81
2018-06-24T03:30:48.404Z,55.09
2018-06-24T03:33:17.139Z,55.16
2018-06-24T03:35:45.784Z,54.78
2018-06-24T03:38:14.437Z,55.52
2018-06-24T03:40:43.249Z,54.85
2018-06-24T03:43:11.910Z,55.18
2018-06-24T03:45:40.515Z,56.26
2018-06-24T03:48:09.988Z,56.27
2018-06-24T03:50:38.698Z,56.23
2018-06-24T03:53:07.367Z,56.49
2018-06-24T03:55:36.170Z,56.71
2018-06-24T03:58:04.859Z,56.07
2018-06-24T04:00:33.484Z,56.55
2018-06-24T04:03:02.248Z,55.79
2018-06-24T04:05:30.928Z,55.54
2018-06-24T04:07:59.626Z,55.55
2018-06-24T04:10:28.299Z,55.90
2018-06-24T04:12:56.980Z,55.45
2018-06-24T04:15:25.684Z,54.74
2018-06-24T04:17:54.322Z,54.74
2018-06-24T04:20:22.945Z,54.96
2018-06-24T04:22:51.824Z,54.41
2018-06-24T04:25:20.589Z,54.37
2018-06-24T04:27:49.166Z,54.10
2018-06-24T04:30:17.786Z,53.80
2018-06-24T04:32:46.436Z,53.64
2018-06-24T04:35:15.639Z,54.06
2018-06-24T04:37:44.252Z,54.94
2018-06-24T04:40:12.843Z,54.00
2018-06-24T04:42:41.391Z,53.71
2018-06-24T04:45:10.031Z,53.50
2018-06-24T04:47:38.706Z,54.22
2018-06-24T04:50:07.799Z,53.35
2018-06-24T04:52:36.669Z,53.27
2018-06-24T04:55:05.396Z,53.18
2018-06-24T04:57:34.204Z,53.00
2018-06-24T05:00:03.006Z,52.63
2018-06-24T05:02:31.718Z,53.09
2018-06-24T05:05:00.285Z,52.62
2018-06-24T05:07:28.928Z,52.00
2018-06-24T05:09:57.581Z,51.63
2018-06-24T05:12:26.245Z,52.31
2018-06-24T05:14:54.819Z,51.87
2018-06-24T05:17:23.481Z,52.48
2018-06-24T05:19:52.225Z,52.67
2018-06-24T05:22:20.947Z,51.34
2018-06-24T05:24:49.688Z,51.01
2018-06-24T05:27:18.281Z,50.72
2018-06-24T05:29:47.172Z,50.56
2018-06-24T05:32:15.929Z,50.77
2018-06-24T05:34:44.708Z,50.83
2018-06-24T05:37:13.387Z,49.09
2018-06-24T05:39:41.984Z,49.11
2018-06-24T05:42:11.435Z,48.54
2018-06-24T05:44:40.096Z,49.07
2018-06-24T05:47:08.940Z,48.79
2018-06-24T05:49:37.727Z,47.89
2018-06-24T05:52:06.334Z,47.35
2018-06-24T05:54:35.097Z,47.80
2018-06-24T05:57:03.850Z,47.52
2018-06-24T05:59:33.413Z,46.44
2018-06-24T06:02:02.069Z,46.68
2018-06-24T06:04:30.682Z,47.59
2018-06-24T06:07:00.117Z,47.20
2018-06-24T06:09:28.695Z,46.32
2018-06-24T06:11:57.293Z,45.28
2018-06-24T06:14:26.154Z,45.02
2018-06-24T06:16:54.824Z,45.40
2018-06-24T06:19:23.668Z,44.34
2018-06-24T06:21:52.477Z,45.10
2018-06-24T06:24:21.417Z,45.60
2018-06-24T06:26:51.037Z,45.16
2018-06-24T06:29:20.226Z,43.80
2018-06-24T06:31:48.929Z,44.11
2018-06-24T06:34:17.701Z,43.53
2018-06-24T06:36:46.460Z,43.31
2018-06-24T06:39:15.387Z,43.01
2018-06-24T06:41:43.954Z,43.50
2018-06-24T06:44:12.574Z,42.88
2018-06-24T06:46:41.263Z,43.15
2018-06-24T06:49:09.917Z,42.82
2018-06-24T06:51:38.538Z,42.67
2018-06-24T06:54:07.184Z,42.38
2018-06-24T06:56:35.647Z,41.71
2018-06-24T06:59:04.232Z,41.72
2018-06-24T07:01:32.853Z,41.91
2018-06-24T07:04:01.390Z,41.86
2018-06-24T07:06:30.053Z,41.07
2018-06-24T07:08:58.625Z,41.20
2018-06-24T07:11:27.349Z,41.33
2018-06-24T07:13:55.978Z,41.77
2018-06-24T07:16:24.611Z,41.60
2018-06-24T07:18:53.118Z,41.58
2018-06-24T07:21:21.763Z,42.20
2018-06-24T07:23:50.519Z,41.85
2018-06-24T07:26:19.270Z,41.22
2018-06-24T07:28:47.919Z,41.11
2018-06-24T07:31:16.583Z,41.15
2018-06-24T07:33:45.296Z,40.29
2018-06-24T07:36:13.855Z,40.40
2018-06-24T07:38:42.577Z,39.51
2018-06-24T07:41:11.121Z,40.43
2018-06-24T07:43:39.712Z,40.69
2018-06-24T07:46:08.344Z,40.70
2018-06-24T07:48:37.124Z,40.08
2018-06-24T07:51:05.933Z,40.67
2018-06-24T07:53:34.550Z,40.83
2018-06-24T07:56:03.264Z,41.25
2018-06-24T07:58:31.990Z,40.91
2018-06-24T08:01:00.616Z,41.14
2018-06-24T08:03:29.199Z,41.38
2018-06-24T08:05:57.816Z,41.45
2018-06-24T08:08:26.460Z,41.97
2018-06-24T08:10:55.306Z,41.79
2018-06-24T08:13:24.330Z,42.10
2018-06-24T08:15:52.961Z,41.92
2018-06-24T08:18:21.609Z,41.15
2018-06-24T08:20:50.210Z,41.91
2018-06-24T08:23:18.876Z,42.07
2018-06-24T08:25:47.580Z,41.14
2018-06-24T08:28:16.355Z,40.54
2018-06-24T08:30:44.991Z,40.15
2018-06-24T08:33:13.607Z,39.78
2018-06-24T08:35:42.168Z,39.04
2018-06-24T08:38:10.829Z,37.53
2018-06-24T08:40:39.573Z,37.74
2018-06-24T08:43:08.676Z,37.63
2018-06-24T08:45:37.601Z,37.76
2018-06-24T08:48:06.255Z,36.44
2018-06-24T08:50:34.900Z,37.24
2018-06-24T08:53:03.600Z,35.68
2018-06-24T08:55:32.297Z,35.87
2018-06-24T08:58:00.965Z,35.05
2018-06-24T09:00:29.636Z,35.65
2018-06-24T09:02:58.222Z,33.62
2018-06-24T09:05:26.799Z,34.16
2018-06-24T09:07:55.817Z,33.82
2018-06-24T09:10:24.433Z,33.97
2018-06-24T09:12:53.098Z,34.12
2018-06-24T09:15:21.802Z,33.45
2018-06-24T09:17:50.374Z,34.17
2018-06-24T09:20:19.034Z,34.70
2018-06-24T09:22:47.896Z,34.36
2018-06-24T09:25:16.489Z,34.65
2018-06-24T09:27:45.239Z,35.78
2018-06-24T09:30:13.972Z,34.76
2018-06-24T09:32:42.540Z,35.18
2018-06-24T09:35:11.221Z,35.26
2018-06-24T09:37:39.967Z,35.70
2018-06-24T09:40:08.661Z,34.67
2018-06-24T09:42:37.377Z,35.77
2018-06-24T09:45:06.088Z,36.35
2018-06-24T09:47:34.731Z,36.09
2018-06-24T09:50:03.453Z,36.13
2018-06-24T09:52:32.165Z,35.95
2018-06-24T09:55:00.899Z,35.67
2018-06-24T09:57:29.536Z,33.52
2018-06-24T09:59:58.691Z,33.71
2018-06-24T10:02:27.769Z,32.60
2018-06-24T10:04:58.456Z,32.37
2018-06-24T10:07:27.476Z,31.32
2018-06-24T10:09:56.705Z,31.47
2018-06-24T10:12:26.148Z,30.44
2018-06-24T10:14:55.202Z,29.03
2018-06-24T10:17:24.144Z,28.93
2018-06-24T10:19:58.660Z,27.29
2018-06-24T10:22:27.621Z,25.35
2018-06-24T10:24:57.061Z,24.16
2018-06-24T10:27:26.228Z,25.40
2018-06-24T10:29:55.136Z,25.28
2018-06-24T10:32:23.805Z,24.15
2018-06-24T10:34:52.379Z,24.41
2018-06-24T10:37:21.058Z,24.89
2018-06-24T10:39:49.823Z,23.84
2018-06-24T10:42:18.580Z,21.42
2018-06-24T10:44:47.179Z,22.41
2018-06-24T10:47:15.969Z,22.68
2018-06-24T10:49:44.892Z,22.07
2018-06-24T10:52:13.577Z,22.73
2018-06-24T10:54:42.271Z,22.09
2018-06-24T10:57:10.980Z,23.98
2018-06-24T10:59:39.492Z,24.06
2018-06-24T11:02:08.068Z,23.98
2018-06-24T11:04:37.100Z,22.40
2018-06-24T11:07:06.018Z,23.56
2018-06-24T11:09:37.169Z,23.97
2018-06-24T11:12:05.953Z,24.10
2018-06-24T11:14:34.840Z,24.32
2018-06-24T11:17:03.897Z,24.28
2018-06-24T11:19:32.990Z,23.52
2018-06-24T11:22:01.798Z,23.22
2018-06-24T11:24:30.776Z,23.89
2018-06-24T11:26:59.504Z,23.03
2018-06-24T11:29:28.354Z,23.07
2018-06-24T11:31:57.384Z,23.86
2018-06-24T11:34:25.981Z,24.70
2018-06-24T11:36:54.619Z,24.78
2018-06-24T11:39:23.319Z,25.45
2018-06-24T11:41:52.039Z,25.87
2018-06-24T11:44:21.279Z,25.66
2018-06-24T11:46:49.931Z,25.22
2018-06-24T11:49:18.613Z,26.06
2018-06-24T11:51:47.233Z,26.14
2018-06-24T11:54:15.874Z,26.95
2018-06-24T11:56:44.523Z,26.59
2018-06-24T11:59:13.119Z,27.23
2018-06-24T12:01:41.799Z,25.67
2018-06-24T12:04:10.434Z,27.30
2018-06-24T12:06:39.126Z,26.64
2018-06-24T12:09:09.913Z,27.11
2018-06-24T12:11:42.859Z,26.60
2018-06-24T12:14:11.918Z,27.68
2018-06-24T12:16:40.680Z,26.69
2018-06-24T12:19:09.249Z,26.38
2018-06-24T12:21:38.025Z,25.88
2018-06-24T12:24:06.647Z,26.54
2018-06-24T12:26:35.360Z,27.38
2018-06-24T12:29:04.040Z,28.11
2018-06-24T12:31:32.840Z,27.88
2018-06-24T12:34:01.576Z,27.54
2018-06-24T12:36:38.509Z,27.65
2018-06-24T12:39:12.046Z,28.40
2018-06-24T12:41:40.901Z,27.68
2018-06-24T12:44:10.386Z,27.50
2018-06-24T12:46:39.266Z,26.98
2018-06-24T12:49:09.065Z,27.73
2018-06-24T12:51:38.863Z,27.31
2018-06-24T12:54:07.927Z,28.33
2018-06-24T12:56:36.733Z,28.81
2018-06-24T12:59:05.678Z,28.80
2018-06-24T13:01:34.459Z,28.50
2018-06-24T13:04:03.084Z,28.23
2018-06-24T13:06:31.735Z,29.12
2018-06-24T13:09:00.455Z,28.44
2018-06-24T13:11:29.209Z,29.64
2018-06-24T13:13:58.167Z,29.66
2018-06-24T13:16:27.156Z,29.55
2018-06-24T13:18:56.299Z,30.03
2018-06-24T13:21:25.180Z,30.16
2018-06-24T13:23:53.967Z,30.15
2018-06-24T13:26:22.813Z,29.52
2018-06-24T13:28:51.660Z,29.71
2018-06-24T13:31:20.477Z,30.62
2018-06-24T13:33:49.326Z,30.45
2018-06-24T13:36:18.097Z,30.59
2018-06-24T13:38:47.146Z,30.86
2018-06-24T13:41:16.008Z,30.85
2018-06-24T13:43:44.927Z,31.15
2018-06-24T13:46:14.612Z,31.14
2018-06-24T13:48:43.325Z,32.44
2018-06-24T13:51:12.008Z,32.69
2018-06-24T13:53:41.089Z,32.17
2018-06-24T13:56:09.941Z,33.21
2018-06-24T13:58:38.712Z,32.69
2018-06-24T14:01:07.732Z,32.67
2018-06-24T14:03:36.746Z,32.88
2018-06-24T14:06:05.522Z,32.88
2018-06-24T14:08:34.275Z,33.40
2018-06-24T14:11:03.632Z,32.83
2018-06-24T14:13:32.449Z,33.19
2018-06-24T14:16:01.424Z,33.90
2018-06-24T14:18:30.098Z,33.49
2018-06-24T14:20:59.052Z,33.77
2018-06-24T14:23:28.004Z,34.06
2018-06-24T14:25:56.676Z,33.44
2018-06-24T14:28:25.417Z,34.70
2018-06-24T14:30:53.987Z,35.57
2018-06-24T14:33:22.978Z,34.46
2018-06-24T14:35:51.707Z,34.92
2018-06-24T14:38:20.312Z,34.98
2018-06-24T14:40:49.705Z,35.72
2018-06-24T14:43:18.398Z,35.08
2018-06-24T14:45:47.113Z,35.63
2018-06-24T14:48:15.880Z,34.85
2018-06-24T14:50:44.701Z,35.82
2018-06-24T14:53:13.723Z,35.74
2018-06-24T14:55:42.559Z,36.10
2018-06-24T14:58:11.252Z,36.07
2018-06-24T15:00:39.923Z,36.27
2018-06-24T15:03:08.696Z,36.23
2018-06-24T15:05:37.318Z,36.41
2018-06-24T15:08:06.345Z,36.32
2018-06-24T15:10:35.069Z,36.83
2018-06-24T15:13:03.674Z,36.98
2018-06-24T15:15:32.442Z,37.46
2018-06-24T15:18:01.103Z,37.18
2018-06-24T15:20:29.838Z,37.28
2018-06-24T15:22:58.893Z,38.12
2018-06-24T15:25:27.523Z,38.14
2018-06-24T15:27:57.772Z,37.44
2018-06-24T15:30:26.589Z,38.49
2018-06-24T15:32:55.297Z,38.79
2018-06-24T15:35:23.955Z,38.30
2018-06-24T15:37:52.786Z,38.73
2018-06-24T15:40:21.573Z,38.25
2018-06-24T15:42:50.373Z,38.52
2018-06-24T15:45:19.085Z,39.15
2018-06-24T15:47:47.707Z,38.52
2018-06-24T15:50:16.342Z,38.49
2018-06-24T15:52:44.975Z,39.60
2018-06-24T15:55:14.106Z,39.79
2018-06-24T15:57:42.773Z,39.19
2018-06-24T16:00:11.557Z,40.23
2018-06-24T16:02:40.351Z,39.95
2018-06-24T16:05:09.448Z,40.06
2018-06-24T16:07:39.293Z,39.76
2018-06-24T16:10:08.938Z,39.97
2018-06-24T16:12:39.084Z,40.89
2018-06-24T16:15:08.496Z,40.75
2018-06-24T16:17:37.922Z,41.04
2018-06-24T16:20:07.099Z,42.22
2018-06-24T16:22:35.808Z,42.23
2018-06-24T16:25:04.773Z,43.23
2018-06-24T16:27:34.064Z,44.06
2018-06-24T16:30:02.941Z,44.40
2018-06-24T16:32:32.722Z,45.00
2018-06-24T16:35:01.440Z,45.05
2018-06-24T16:37:30.338Z,46.14
2018-06-24T16:39:59.255Z,45.91
2018-06-24T16:42:28.696Z,46.32
2018-06-24T16:45:10.296Z,46.14
2018-06-24T16:47:39.410Z,47.31
2018-06-24T16:50:08.472Z,46.42
2018-06-24T16:52:37.430Z,46.60
2018-06-24T16:55:06.545Z,46.87
2018-06-24T16:57:35.274Z,47.72
2018-06-24T17:00:04.164Z,47.12
2018-06-24T17:02:32.952Z,46.92
2018-06-24T17:05:01.870Z,47.51
2018-06-24T17:07:30.771Z,47.72
2018-06-24T17:09:59.638Z,47.59
2018-06-24T17:12:29.648Z,47.29
2018-06-24T17:14:59.480Z,47.89
2018-06-24T17:17:28.248Z,47.86
2018-06-24T17:19:57.080Z,47.81
2018-06-24T17:22:27.396Z,47.99
2018-06-24T17:24:56.261Z,47.60
2018-06-24T17:27:25.074Z,47.77
2018-06-24T17:29:53.999Z,47.65
2018-06-24T17:32:22.844Z,48.07
2018-06-24T17:34:51.814Z,48.27
2018-06-24T17:37:20.706Z,47.79
2018-06-24T17:39:49.466Z,48.45
2018-06-24T17:42:18.406Z,48.52
2018-06-24T17:44:47.252Z,48.85
2018-06-24T17:47:16.098Z,49.71
2018-06-24T17:49:44.910Z,49.22
2018-06-24T17:52:13.552Z,50.16
2018-06-24T17:54:42.303Z,50.63
2018-06-24T17:57:10.976Z,50.87
2018-06-24T17:59:39.701Z,50.82
2018-06-24T18:02:09.055Z,50.61
2018-06-24T18:04:37.959Z,51.02
2018-06-24T18:07:06.568Z,50.17
2018-06-24T18:09:35.376Z,50.33
2018-06-24T18:12:06.358Z,50.29
2018-06-24T18:14:34.976Z,51.07
2018-06-24T18:17:04.480Z,50.47
2018-06-24T18:19:33.120Z,50.75
2018-06-24T18:22:01.621Z,51.87
2018-06-24T18:24:32.735Z,51.15
2018-06-24T18:27:01.761Z,52.11
2018-06-24T18:29:31.336Z,51.96
2018-06-24T18:32:02.137Z,51.80
2018-06-24T18:34:31.361Z,52.51
2018-06-24T18:37:00.787Z,52.16
2018-06-24T18:39:29.918Z,51.58
2018-06-24T18:41:58.696Z,52.39
2018-06-24T18:44:27.662Z,51.69
2018-06-24T18:46:56.448Z,52.50
2018-06-24T18:49:25.090Z,52.56
2018-06-24T18:51:53.830Z,51.92
2018-06-24T18:54:22.742Z,52.43
2018-06-24T18:56:51.315Z,52.60
2018-06-24T18:59:19.905Z,52.69
2018-06-24T19:01:48.781Z,52.03
2018-06-24T19:04:17.698Z,52.41
2018-06-24T19:06:46.409Z,52.77
2018-06-24T19:09:15.163Z,52.62
2018-06-24T19:11:43.964Z,51.79
2018-06-24T19:14:12.567Z,51.44
2018-06-24T19:16:41.683Z,52.34
2018-06-24T19:19:10.312Z,52.19
2018-06-24T19:21:38.829Z,51.78
2018-06-24T19:24:07.517Z,52.58
2018-06-24T19:26:36.151Z,52.22
2018-06-24T19:29:04.825Z,52.57
2018-06-24T19:31:33.365Z,52.23
2018-06-24T19:34:01.953Z,52.49
2018-06-24T19:36:30.530Z,52.27
2018-06-24T19:38:59.157Z,52.22
2018-06-24T19:41:27.771Z,52.14
2018-06-24T19:43:56.491Z,52.66
2018-06-24T19:46:25.163Z,52.68
2018-06-24T19:48:53.693Z,52.16
2018-06-24T19:51:22.361Z,52.30
2018-06-24T19:53:51.220Z,51.89
2018-06-24T19:56:19.903Z,51.94
2018-06-24T19:58:48.790Z,51.99
2018-06-24T20:01:17.728Z,52.45
2018-06-24T20:03:46.875Z,52.56
2018-06-24T20:06:15.921Z,52.93
2018-06-24T20:08:45.101Z,52.81
2018-06-24T20:11:14.256Z,52.89
2018-06-24T20:13:43.101Z,52.79
2018-06-24T20:16:11.876Z,53.34
2018-06-24T20:18:41.516Z,52.77
2018-06-24T20:21:10.369Z,53.36
2018-06-24T20:23:39.076Z,52.87
2018-06-24T20:26:08.071Z,52.76
2018-06-24T20:28:36.937Z,53.17
2018-06-24T20:31:05.823Z,53.18
2018-06-24T20:33:34.738Z,52.75
2018-06-24T20:36:03.571Z,53.56
2018-06-24T20:38:32.319Z,53.51
2018-06-24T20:41:01.176Z,52.90
2018-06-24T20:43:29.936Z,53.24
2018-06-24T20:45:58.685Z,52.96
2018-06-24T20:48:27.513Z,53.01
2018-06-24T20:50:56.395Z,53.40
2018-06-24T20:53:25.068Z,52.81
2018-06-24T20:55:54.430Z,53.38
2018-06-24T20:58:23.399Z,53.55
2018-06-24T21:00:52.142Z,53.85
2018-06-24T21:03:21.023Z,53.67
2018-06-24T21:05:49.692Z,52.96
2018-06-24T21:08:18.365Z,53.81
2018-06-24T21:10:47.084Z,53.04
2018-06-24T21:13:15.925Z,54.00
2018-06-24T21:15:44.824Z,53.24
2018-06-24T21:18:13.552Z,53.70
2018-06-24T21:20:42.251Z,54.03
2018-06-24T21:23:10.956Z,53.78
2018-06-24T21:25:39.580Z,54.09
2018-06-24T21:28:08.467Z,53.91
2018-06-24T21:30:37.328Z,54.60
2018-06-24T21:33:05.979Z,54.49
2018-06-24T21:35:34.657Z,54.21
2018-06-24T21:38:03.215Z,54.37
2018-06-24T21:40:32.027Z,53.72
2018-06-24T21:43:00.714Z,54.33
2018-06-24T21:45:29.849Z,54.38
2018-06-24T21:47:58.485Z,53.54
2018-06-24T21:50:27.273Z,54.13
2018-06-24T21:52:56.068Z,54.27
2018-06-24T21:55:24.752Z,54.55
2018-06-24T21:57:53.460Z,53.93
2018-06-24T22:00:22.318Z,54.28
2018-06-24T22:02:51.026Z,53.71
2018-06-24T22:05:20.547Z,53.89
2018-06-24T22:07:49.263Z,54.93
2018-06-24T22:10:17.970Z,54.47
2018-06-24T22:12:46.801Z,54.62
2018-06-24T22:15:15.728Z,55.60
2018-06-24T22:17:44.413Z,55.07
2018-06-24T22:20:13.296Z,55.29
2018-06-24T22:22:41.986Z,55.55
2018-06-24T22:25:10.762Z,56.64
2018-06-24T22:27:39.982Z,56.00
2018-06-24T22:30:08.543Z,56.26
2018-06-24T22:32:37.108Z,56.23
2018-06-24T22:35:05.680Z,57.05
2018-06-24T22:37:34.269Z,57.17
2018-06-24T22:40:02.796Z,56.43
2018-06-24T22:42:31.415Z,56.15
2018-06-24T22:45:00.013Z,56.60
2018-06-24T22:47:28.653Z,57.29
2018-06-24T22:49:57.280Z,57.04
2018-06-24T22:52:25.953Z,57.16
2018-06-24T22:54:54.563Z,57.19
2018-06-24T22:57:23.120Z,56.56
2018-06-24T23:00:25.268Z,56.87
2018-06-24T23:02:53.819Z,56.56
2018-06-24T23:05:22.335Z,56.89
2018-06-24T23:07:50.953Z,56.96
2018-06-24T23:10:19.483Z,56.08
2018-06-24T23:12:48.066Z,56.46
2018-06-24T23:15:16.630Z,56.52
2018-06-24T23:17:45.240Z,57.08
2018-06-24T23:20:14.026Z,56.65
2018-06-24T23:22:42.687Z,56.61
2018-06-24T23:25:11.366Z,56.30
2018-06-24T23:27:40.011Z,56.36
2018-06-24T23:30:08.866Z,56.00
2018-06-24T23:32:37.751Z,56.85
2018-06-24T23:35:06.456Z,56.79
2018-06-24T23:37:35.114Z,56.79
2018-06-24T23:40:03.753Z,56.51
2018-06-24T23:42:32.384Z,55.77
2018-06-24T23:45:00.907Z,56.22
2018-06-24T23:47:29.717Z,56.18
2018-06-24T23:49:58.270Z,56.65
2018-06-24T23:52:26.813Z,56.59
2018-06-24T23:54:55.372Z,55.98
2018-06-24T23:57:24.161Z,56.63
2018-06-24T23:59:52.852Z,56.52
